sensor_id;sensor_type;location;lat;lon;timestamp;temperature;humidity
15554;DHT22;7878;44.632;10.942;2022-07-18T00:02:03;29.10;70.10
15554;DHT22;7878;44.632;10.942;2022-07-18T00:04:29;29.10;70.10
15554;DHT22;7878;44.632;10.942;2022-07-18T00:06:55;29.10;70.60
15554;DHT22;7878;44.632;10.942;2022-07-18T00:09:21;29.10;70.50
15554;DHT22;7878;44.632;10.942;2022-07-18T00:11:49;29.10;70.30
15554;DHT22;7878;44.632;10.942;2022-07-18T00:14:15;29.10;70.30
15554;DHT22;7878;44.632;10.942;2022-07-18T00:16:41;29.10;70.80
15554;DHT22;7878;44.632;10.942;2022-07-18T00:19:06;29.10;70.80
15554;DHT22;7878;44.632;10.942;2022-07-18T00:21:33;29.10;70.70
15554;DHT22;7878;44.632;10.942;2022-07-18T00:23:59;29.10;70.70
15554;DHT22;7878;44.632;10.942;2022-07-18T00:26:25;29.00;70.70
15554;DHT22;7878;44.632;10.942;2022-07-18T00:28:51;29.00;71.10
15554;DHT22;7878;44.632;10.942;2022-07-18T00:31:17;28.90;70.80
15554;DHT22;7878;44.632;10.942;2022-07-18T00:33:42;29.00;71.10
15554;DHT22;7878;44.632;10.942;2022-07-18T00:36:08;29.00;70.90
15554;DHT22;7878;44.632;10.942;2022-07-18T00:38:33;28.90;71.10
15554;DHT22;7878;44.632;10.942;2022-07-18T00:40:59;28.90;71.20
15554;DHT22;7878;44.632;10.942;2022-07-18T00:43:25;28.90;71.40
15554;DHT22;7878;44.632;10.942;2022-07-18T00:45:51;28.90;71.30
15554;DHT22;7878;44.632;10.942;2022-07-18T00:48:18;28.90;71.80
15554;DHT22;7878;44.632;10.942;2022-07-18T00:50:44;28.80;72.00
15554;DHT22;7878;44.632;10.942;2022-07-18T00:53:11;28.70;72.10
15554;DHT22;7878;44.632;10.942;2022-07-18T00:55:42;28.70;72.20
15554;DHT22;7878;44.632;10.942;2022-07-18T00:58:10;28.70;73.10
15554;DHT22;7878;44.632;10.942;2022-07-18T01:00:37;28.70;72.50
15554;DHT22;7878;44.632;10.942;2022-07-18T01:03:21;28.70;72.40
15554;DHT22;7878;44.632;10.942;2022-07-18T01:05:47;28.70;72.00
15554;DHT22;7878;44.632;10.942;2022-07-18T01:08:13;28.70;72.30
15554;DHT22;7878;44.632;10.942;2022-07-18T01:10:38;28.70;72.30
15554;DHT22;7878;44.632;10.942;2022-07-18T01:13:04;28.70;72.10
15554;DHT22;7878;44.632;10.942;2022-07-18T01:15:30;28.70;72.00
15554;DHT22;7878;44.632;10.942;2022-07-18T01:17:55;28.70;72.20
15554;DHT22;7878;44.632;10.942;2022-07-18T01:20:21;28.80;72.40
15554;DHT22;7878;44.632;10.942;2022-07-18T01:22:47;28.70;72.20
15554;DHT22;7878;44.632;10.942;2022-07-18T01:25:13;28.60;72.20
15554;DHT22;7878;44.632;10.942;2022-07-18T01:27:42;28.50;72.20
15554;DHT22;7878;44.632;10.942;2022-07-18T01:30:09;28.50;72.50
15554;DHT22;7878;44.632;10.942;2022-07-18T01:32:34;28.50;72.20
15554;DHT22;7878;44.632;10.942;2022-07-18T01:35:00;28.50;72.50
15554;DHT22;7878;44.632;10.942;2022-07-18T01:37:26;28.50;72.60
15554;DHT22;7878;44.632;10.942;2022-07-18T01:39:51;28.40;72.40
15554;DHT22;7878;44.632;10.942;2022-07-18T01:42:18;28.40;73.00
15554;DHT22;7878;44.632;10.942;2022-07-18T01:44:46;28.30;72.80
15554;DHT22;7878;44.632;10.942;2022-07-18T01:47:12;28.30;73.40
15554;DHT22;7878;44.632;10.942;2022-07-18T01:49:38;28.30;73.30
15554;DHT22;7878;44.632;10.942;2022-07-18T01:52:05;28.30;74.40
15554;DHT22;7878;44.632;10.942;2022-07-18T01:54:32;28.20;73.10
15554;DHT22;7878;44.632;10.942;2022-07-18T01:57:00;28.20;73.30
15554;DHT22;7878;44.632;10.942;2022-07-18T01:59:26;28.20;73.40
15554;DHT22;7878;44.632;10.942;2022-07-18T02:01:52;28.20;73.50
15554;DHT22;7878;44.632;10.942;2022-07-18T02:04:18;28.20;73.60
15554;DHT22;7878;44.632;10.942;2022-07-18T02:06:44;28.20;73.60
15554;DHT22;7878;44.632;10.942;2022-07-18T02:09:10;28.20;73.70
15554;DHT22;7878;44.632;10.942;2022-07-18T02:11:36;28.20;73.80
15554;DHT22;7878;44.632;10.942;2022-07-18T02:14:03;28.20;73.40
15554;DHT22;7878;44.632;10.942;2022-07-18T02:16:30;28.20;73.70
15554;DHT22;7878;44.632;10.942;2022-07-18T02:18:57;28.20;73.60
15554;DHT22;7878;44.632;10.942;2022-07-18T02:21:23;28.20;73.80
15554;DHT22;7878;44.632;10.942;2022-07-18T02:23:49;28.10;74.20
15554;DHT22;7878;44.632;10.942;2022-07-18T02:26:17;28.10;74.40
15554;DHT22;7878;44.632;10.942;2022-07-18T02:28:43;28.10;74.30
15554;DHT22;7878;44.632;10.942;2022-07-18T02:31:09;28.10;74.20
15554;DHT22;7878;44.632;10.942;2022-07-18T02:33:34;28.00;74.50
15554;DHT22;7878;44.632;10.942;2022-07-18T02:36:00;27.90;75.00
15554;DHT22;7878;44.632;10.942;2022-07-18T02:38:26;27.80;75.30
15554;DHT22;7878;44.632;10.942;2022-07-18T02:40:52;27.60;75.70
15554;DHT22;7878;44.632;10.942;2022-07-18T02:43:17;27.60;76.00
15554;DHT22;7878;44.632;10.942;2022-07-18T02:45:43;27.50;76.70
15554;DHT22;7878;44.632;10.942;2022-07-18T02:48:09;27.40;76.90
15554;DHT22;7878;44.632;10.942;2022-07-18T02:50:34;27.50;76.20
15554;DHT22;7878;44.632;10.942;2022-07-18T02:53:00;27.40;76.60
15554;DHT22;7878;44.632;10.942;2022-07-18T02:55:26;27.40;77.30
15554;DHT22;7878;44.632;10.942;2022-07-18T02:57:52;27.30;77.40
15554;DHT22;7878;44.632;10.942;2022-07-18T03:00:17;27.30;77.70
15554;DHT22;7878;44.632;10.942;2022-07-18T03:02:44;27.20;77.30
15554;DHT22;7878;44.632;10.942;2022-07-18T03:05:10;27.10;77.70
15554;DHT22;7878;44.632;10.942;2022-07-18T03:07:36;27.10;77.60
15554;DHT22;7878;44.632;10.942;2022-07-18T03:10:03;27.00;78.00
15554;DHT22;7878;44.632;10.942;2022-07-18T03:12:29;27.00;78.10
15554;DHT22;7878;44.632;10.942;2022-07-18T03:14:55;27.00;78.30
15554;DHT22;7878;44.632;10.942;2022-07-18T03:17:20;27.00;78.00
15554;DHT22;7878;44.632;10.942;2022-07-18T03:19:46;27.00;78.30
15554;DHT22;7878;44.632;10.942;2022-07-18T03:22:12;26.90;78.90
15554;DHT22;7878;44.632;10.942;2022-07-18T03:24:37;26.80;78.50
15554;DHT22;7878;44.632;10.942;2022-07-18T03:27:03;26.70;78.80
15554;DHT22;7878;44.632;10.942;2022-07-18T03:29:29;26.60;79.50
15554;DHT22;7878;44.632;10.942;2022-07-18T03:31:54;26.60;79.40
15554;DHT22;7878;44.632;10.942;2022-07-18T03:34:20;26.60;79.50
15554;DHT22;7878;44.632;10.942;2022-07-18T03:36:46;26.70;79.30
15554;DHT22;7878;44.632;10.942;2022-07-18T03:39:12;26.80;79.20
15554;DHT22;7878;44.632;10.942;2022-07-18T03:41:38;26.80;79.20
15554;DHT22;7878;44.632;10.942;2022-07-18T03:44:05;26.80;79.10
15554;DHT22;7878;44.632;10.942;2022-07-18T03:46:31;26.80;79.40
15554;DHT22;7878;44.632;10.942;2022-07-18T03:48:57;26.90;79.30
15554;DHT22;7878;44.632;10.942;2022-07-18T03:51:23;26.90;79.60
15554;DHT22;7878;44.632;10.942;2022-07-18T03:53:49;26.90;79.60
15554;DHT22;7878;44.632;10.942;2022-07-18T03:56:15;27.00;79.50
15554;DHT22;7878;44.632;10.942;2022-07-18T03:58:41;27.00;80.00
15554;DHT22;7878;44.632;10.942;2022-07-18T04:01:07;27.00;79.90
15554;DHT22;7878;44.632;10.942;2022-07-18T04:03:33;27.10;79.60
15554;DHT22;7878;44.632;10.942;2022-07-18T04:05:58;27.10;80.10
15554;DHT22;7878;44.632;10.942;2022-07-18T04:08:24;27.00;79.90
15554;DHT22;7878;44.632;10.942;2022-07-18T04:10:50;27.10;80.00
15554;DHT22;7878;44.632;10.942;2022-07-18T04:13:15;27.00;79.60
15554;DHT22;7878;44.632;10.942;2022-07-18T04:15:41;27.00;79.80
15554;DHT22;7878;44.632;10.942;2022-07-18T04:18:08;27.00;79.80
15554;DHT22;7878;44.632;10.942;2022-07-18T04:20:35;27.00;79.90
15554;DHT22;7878;44.632;10.942;2022-07-18T04:23:07;27.00;80.20
15554;DHT22;7878;44.632;10.942;2022-07-18T04:25:40;27.00;81.40
15554;DHT22;7878;44.632;10.942;2022-07-18T04:28:08;27.00;81.00
15554;DHT22;7878;44.632;10.942;2022-07-18T04:30:35;27.00;81.00
15554;DHT22;7878;44.632;10.942;2022-07-18T04:33:03;27.00;80.30
15554;DHT22;7878;44.632;10.942;2022-07-18T04:35:29;27.00;80.60
15554;DHT22;7878;44.632;10.942;2022-07-18T04:37:55;27.00;80.20
15554;DHT22;7878;44.632;10.942;2022-07-18T04:40:21;27.00;80.20
15554;DHT22;7878;44.632;10.942;2022-07-18T04:42:47;27.00;80.80
15554;DHT22;7878;44.632;10.942;2022-07-18T04:45:13;26.90;80.70
15554;DHT22;7878;44.632;10.942;2022-07-18T04:47:39;26.90;81.50
15554;DHT22;7878;44.632;10.942;2022-07-18T04:50:06;26.70;80.90
15554;DHT22;7878;44.632;10.942;2022-07-18T04:52:39;26.50;81.40
15554;DHT22;7878;44.632;10.942;2022-07-18T04:55:06;26.30;83.80
15554;DHT22;7878;44.632;10.942;2022-07-18T04:57:32;26.30;82.70
15554;DHT22;7878;44.632;10.942;2022-07-18T05:00:00;26.10;82.20
15554;DHT22;7878;44.632;10.942;2022-07-18T05:02:25;26.10;82.50
15554;DHT22;7878;44.632;10.942;2022-07-18T05:04:51;26.10;82.30
15554;DHT22;7878;44.632;10.942;2022-07-18T05:07:17;26.10;82.70
15554;DHT22;7878;44.632;10.942;2022-07-18T05:09:42;26.10;83.00
15554;DHT22;7878;44.632;10.942;2022-07-18T05:12:08;26.00;83.10
15554;DHT22;7878;44.632;10.942;2022-07-18T05:14:34;26.00;84.40
15554;DHT22;7878;44.632;10.942;2022-07-18T05:17:00;26.10;83.40
15554;DHT22;7878;44.632;10.942;2022-07-18T05:19:26;26.10;83.50
15554;DHT22;7878;44.632;10.942;2022-07-18T05:21:51;26.10;84.00
15554;DHT22;7878;44.632;10.942;2022-07-18T05:24:17;26.20;84.30
15554;DHT22;7878;44.632;10.942;2022-07-18T05:26:43;26.20;83.60
15554;DHT22;7878;44.632;10.942;2022-07-18T05:29:09;26.20;83.80
15554;DHT22;7878;44.632;10.942;2022-07-18T05:31:35;26.30;83.60
15554;DHT22;7878;44.632;10.942;2022-07-18T05:34:00;26.40;84.30
15554;DHT22;7878;44.632;10.942;2022-07-18T05:36:26;26.30;85.40
15554;DHT22;7878;44.632;10.942;2022-07-18T05:38:51;26.20;84.50
15554;DHT22;7878;44.632;10.942;2022-07-18T05:41:17;26.20;85.00
15554;DHT22;7878;44.632;10.942;2022-07-18T05:43:43;26.20;85.00
15554;DHT22;7878;44.632;10.942;2022-07-18T05:46:09;26.20;86.20
15554;DHT22;7878;44.632;10.942;2022-07-18T05:48:34;26.40;85.90
15554;DHT22;7878;44.632;10.942;2022-07-18T05:51:00;26.50;85.40
15554;DHT22;7878;44.632;10.942;2022-07-18T05:53:25;26.60;85.90
15554;DHT22;7878;44.632;10.942;2022-07-18T05:55:51;26.80;85.40
15554;DHT22;7878;44.632;10.942;2022-07-18T05:58:17;26.90;85.50
15554;DHT22;7878;44.632;10.942;2022-07-18T06:00:43;27.00;85.60
15554;DHT22;7878;44.632;10.942;2022-07-18T06:03:08;27.20;85.70
15554;DHT22;7878;44.632;10.942;2022-07-18T06:05:34;27.30;85.60
15554;DHT22;7878;44.632;10.942;2022-07-18T06:08:00;27.40;85.30
15554;DHT22;7878;44.632;10.942;2022-07-18T06:10:26;27.50;85.50
15554;DHT22;7878;44.632;10.942;2022-07-18T06:12:52;27.60;85.20
15554;DHT22;7878;44.632;10.942;2022-07-18T06:15:19;27.60;85.40
15554;DHT22;7878;44.632;10.942;2022-07-18T06:17:45;27.70;85.20
15554;DHT22;7878;44.632;10.942;2022-07-18T06:20:11;27.80;85.50
15554;DHT22;7878;44.632;10.942;2022-07-18T06:22:37;27.80;85.20
15554;DHT22;7878;44.632;10.942;2022-07-18T06:25:03;27.90;85.50
15554;DHT22;7878;44.632;10.942;2022-07-18T06:27:29;28.00;85.20
15554;DHT22;7878;44.632;10.942;2022-07-18T06:29:55;28.10;84.80
15554;DHT22;7878;44.632;10.942;2022-07-18T06:32:20;28.10;85.30
15554;DHT22;7878;44.632;10.942;2022-07-18T06:34:46;28.20;85.10
15554;DHT22;7878;44.632;10.942;2022-07-18T06:37:12;28.30;85.70
15554;DHT22;7878;44.632;10.942;2022-07-18T06:39:37;28.20;85.10
15554;DHT22;7878;44.632;10.942;2022-07-18T06:42:03;28.20;85.80
15554;DHT22;7878;44.632;10.942;2022-07-18T06:44:29;28.20;85.50
15554;DHT22;7878;44.632;10.942;2022-07-18T06:46:55;28.30;85.40
15554;DHT22;7878;44.632;10.942;2022-07-18T06:49:23;28.40;85.50
15554;DHT22;7878;44.632;10.942;2022-07-18T06:51:50;28.50;85.80
15554;DHT22;7878;44.632;10.942;2022-07-18T06:54:16;28.50;85.10
15554;DHT22;7878;44.632;10.942;2022-07-18T06:56:42;28.50;85.40
15554;DHT22;7878;44.632;10.942;2022-07-18T06:59:08;28.60;85.00
15554;DHT22;7878;44.632;10.942;2022-07-18T07:01:33;28.60;85.70
15554;DHT22;7878;44.632;10.942;2022-07-18T07:03:59;28.70;84.80
15554;DHT22;7878;44.632;10.942;2022-07-18T07:06:25;28.70;84.80
15554;DHT22;7878;44.632;10.942;2022-07-18T07:08:51;28.70;84.70
15554;DHT22;7878;44.632;10.942;2022-07-18T07:11:16;28.70;84.60
15554;DHT22;7878;44.632;10.942;2022-07-18T07:13:42;28.60;84.50
15554;DHT22;7878;44.632;10.942;2022-07-18T07:16:08;28.70;84.60
15554;DHT22;7878;44.632;10.942;2022-07-18T07:18:33;28.70;84.40
15554;DHT22;7878;44.632;10.942;2022-07-18T07:20:59;28.70;84.10
15554;DHT22;7878;44.632;10.942;2022-07-18T07:23:25;28.80;84.10
15554;DHT22;7878;44.632;10.942;2022-07-18T07:25:51;29.00;83.90
15554;DHT22;7878;44.632;10.942;2022-07-18T07:28:17;29.10;84.10
15554;DHT22;7878;44.632;10.942;2022-07-18T07:30:44;29.00;83.40
15554;DHT22;7878;44.632;10.942;2022-07-18T07:33:11;29.00;83.30
15554;DHT22;7878;44.632;10.942;2022-07-18T07:35:36;29.00;83.50
15554;DHT22;7878;44.632;10.942;2022-07-18T07:38:02;29.00;83.20
15554;DHT22;7878;44.632;10.942;2022-07-18T07:40:29;29.10;82.90
15554;DHT22;7878;44.632;10.942;2022-07-18T07:43:06;29.20;82.80
15554;DHT22;7878;44.632;10.942;2022-07-18T07:45:33;29.30;82.70
15554;DHT22;7878;44.632;10.942;2022-07-18T07:47:59;29.40;82.20
15554;DHT22;7878;44.632;10.942;2022-07-18T07:50:25;29.40;82.00
15554;DHT22;7878;44.632;10.942;2022-07-18T07:52:50;29.50;82.10
15554;DHT22;7878;44.632;10.942;2022-07-18T07:55:16;29.50;81.90
15554;DHT22;7878;44.632;10.942;2022-07-18T07:57:41;29.60;81.60
15554;DHT22;7878;44.632;10.942;2022-07-18T08:00:08;29.60;81.50
15554;DHT22;7878;44.632;10.942;2022-07-18T08:02:35;29.70;81.30
15554;DHT22;7878;44.632;10.942;2022-07-18T08:05:00;29.90;81.10
15554;DHT22;7878;44.632;10.942;2022-07-18T08:07:26;29.90;80.50
15554;DHT22;7878;44.632;10.942;2022-07-18T08:09:52;29.90;80.40
15554;DHT22;7878;44.632;10.942;2022-07-18T08:12:18;30.00;80.30
15554;DHT22;7878;44.632;10.942;2022-07-18T08:14:43;30.10;80.20
15554;DHT22;7878;44.632;10.942;2022-07-18T08:17:09;30.10;79.60
15554;DHT22;7878;44.632;10.942;2022-07-18T08:19:35;30.20;79.20
15554;DHT22;7878;44.632;10.942;2022-07-18T08:22:01;30.10;79.30
15554;DHT22;7878;44.632;10.942;2022-07-18T08:24:27;30.20;79.30
15554;DHT22;7878;44.632;10.942;2022-07-18T08:26:52;30.20;79.20
15554;DHT22;7878;44.632;10.942;2022-07-18T08:29:18;30.40;78.60
15554;DHT22;7878;44.632;10.942;2022-07-18T08:31:44;30.50;78.60
15554;DHT22;7878;44.632;10.942;2022-07-18T08:34:09;30.80;78.20
15554;DHT22;7878;44.632;10.942;2022-07-18T08:36:35;31.00;77.70
15554;DHT22;7878;44.632;10.942;2022-07-18T08:39:00;31.00;77.80
15554;DHT22;7878;44.632;10.942;2022-07-18T08:41:27;31.00;77.40
15554;DHT22;7878;44.632;10.942;2022-07-18T08:43:53;31.10;77.20
15554;DHT22;7878;44.632;10.942;2022-07-18T08:46:21;31.10;77.20
15554;DHT22;7878;44.632;10.942;2022-07-18T08:48:47;31.20;77.40
15554;DHT22;7878;44.632;10.942;2022-07-18T08:51:13;31.10;77.10
15554;DHT22;7878;44.632;10.942;2022-07-18T08:53:40;31.10;76.90
15554;DHT22;7878;44.632;10.942;2022-07-18T08:56:05;31.20;76.90
15554;DHT22;7878;44.632;10.942;2022-07-18T08:58:31;31.20;76.50
15554;DHT22;7878;44.632;10.942;2022-07-18T09:00:57;31.30;76.30
15554;DHT22;7878;44.632;10.942;2022-07-18T09:03:24;31.30;76.20
15554;DHT22;7878;44.632;10.942;2022-07-18T09:06:22;31.40;76.30
15554;DHT22;7878;44.632;10.942;2022-07-18T09:08:59;31.50;74.00
15554;DHT22;7878;44.632;10.942;2022-07-18T09:11:25;31.50;75.00
15554;DHT22;7878;44.632;10.942;2022-07-18T09:13:51;31.50;75.60
15554;DHT22;7878;44.632;10.942;2022-07-18T09:16:16;31.50;75.50
15554;DHT22;7878;44.632;10.942;2022-07-18T09:18:43;31.60;75.70
15554;DHT22;7878;44.632;10.942;2022-07-18T09:21:11;31.70;74.40
15554;DHT22;7878;44.632;10.942;2022-07-18T09:23:40;31.70;75.10
15554;DHT22;7878;44.632;10.942;2022-07-18T09:26:07;31.70;74.10
15554;DHT22;7878;44.632;10.942;2022-07-18T09:28:50;31.80;74.70
15554;DHT22;7878;44.632;10.942;2022-07-18T09:31:18;31.80;71.60
15554;DHT22;7878;44.632;10.942;2022-07-18T09:33:59;31.80;73.40
15554;DHT22;7878;44.632;10.942;2022-07-18T09:36:25;31.80;71.60
15554;DHT22;7878;44.632;10.942;2022-07-18T09:38:52;31.90;72.90
15554;DHT22;7878;44.632;10.942;2022-07-18T09:41:28;32.00;72.70
15554;DHT22;7878;44.632;10.942;2022-07-18T09:43:55;32.10;71.70
15554;DHT22;7878;44.632;10.942;2022-07-18T09:46:21;32.20;72.60
15554;DHT22;7878;44.632;10.942;2022-07-18T09:48:47;32.20;73.50
15554;DHT22;7878;44.632;10.942;2022-07-18T09:51:13;32.20;71.60
15554;DHT22;7878;44.632;10.942;2022-07-18T09:53:40;32.20;72.60
15554;DHT22;7878;44.632;10.942;2022-07-18T10:01:17;32.50;69.80
15554;DHT22;7878;44.632;10.942;2022-07-18T10:03:43;32.60;71.10
15554;DHT22;7878;44.632;10.942;2022-07-18T10:06:10;32.60;71.80
15554;DHT22;7878;44.632;10.942;2022-07-18T10:08:36;32.80;71.60
15554;DHT22;7878;44.632;10.942;2022-07-18T10:11:04;33.00;70.80
15554;DHT22;7878;44.632;10.942;2022-07-18T10:13:31;33.30;70.10
15554;DHT22;7878;44.632;10.942;2022-07-18T10:15:57;33.70;69.90
15554;DHT22;7878;44.632;10.942;2022-07-18T10:18:29;34.20;69.20
15554;DHT22;7878;44.632;10.942;2022-07-18T10:21:11;34.20;66.90
15554;DHT22;7878;44.632;10.942;2022-07-18T10:23:46;34.10;69.80
15554;DHT22;7878;44.632;10.942;2022-07-18T10:26:21;34.20;66.70
15554;DHT22;7878;44.632;10.942;2022-07-18T10:31:34;34.10;65.00
15554;DHT22;7878;44.632;10.942;2022-07-18T10:36:35;33.90;68.00
15554;DHT22;7878;44.632;10.942;2022-07-18T10:39:08;33.80;68.60
15554;DHT22;7878;44.632;10.942;2022-07-18T11:03:08;36.50;66.10
15554;DHT22;7878;44.632;10.942;2022-07-18T11:05:43;37.20;63.60
15554;DHT22;7878;44.632;10.942;2022-07-18T11:15:55;39.90;59.10
15554;DHT22;7878;44.632;10.942;2022-07-18T11:18:25;41.20;62.60
15554;DHT22;7878;44.632;10.942;2022-07-18T11:20:51;42.60;64.00
15554;DHT22;7878;44.632;10.942;2022-07-18T11:23:22;43.70;61.80
15554;DHT22;7878;44.632;10.942;2022-07-18T11:25:50;44.60;60.30
15554;DHT22;7878;44.632;10.942;2022-07-18T11:28:16;45.10;61.10
15554;DHT22;7878;44.632;10.942;2022-07-18T11:30:43;45.50;61.00
15554;DHT22;7878;44.632;10.942;2022-07-18T11:33:27;45.80;58.80
15554;DHT22;7878;44.632;10.942;2022-07-18T11:36:05;44.70;51.10
15554;DHT22;7878;44.632;10.942;2022-07-18T11:38:31;43.10;54.40
15554;DHT22;7878;44.632;10.942;2022-07-18T11:40:57;41.90;61.50
15554;DHT22;7878;44.632;10.942;2022-07-18T11:43:25;41.00;61.30
15554;DHT22;7878;44.632;10.942;2022-07-18T11:46:11;40.10;60.10
15554;DHT22;7878;44.632;10.942;2022-07-18T11:48:38;39.10;54.90
15554;DHT22;7878;44.632;10.942;2022-07-18T11:51:15;38.50;61.90
15554;DHT22;7878;44.632;10.942;2022-07-18T11:53:44;37.90;57.70
15554;DHT22;7878;44.632;10.942;2022-07-18T11:56:10;37.60;61.40
15554;DHT22;7878;44.632;10.942;2022-07-18T11:58:37;37.30;61.90
15554;DHT22;7878;44.632;10.942;2022-07-18T12:01:04;36.90;61.40
15554;DHT22;7878;44.632;10.942;2022-07-18T12:03:30;36.70;60.80
15554;DHT22;7878;44.632;10.942;2022-07-18T12:05:56;36.60;63.00
15554;DHT22;7878;44.632;10.942;2022-07-18T12:08:34;36.50;62.90
15554;DHT22;7878;44.632;10.942;2022-07-18T12:16:56;36.30;60.90
15554;DHT22;7878;44.632;10.942;2022-07-18T12:19:31;36.20;58.70
15554;DHT22;7878;44.632;10.942;2022-07-18T12:27:08;35.80;62.20
15554;DHT22;7878;44.632;10.942;2022-07-18T12:30:12;35.80;61.40
15554;DHT22;7878;44.632;10.942;2022-07-18T12:32:58;35.80;59.40
15554;DHT22;7878;44.632;10.942;2022-07-18T12:35:33;35.80;59.20
15554;DHT22;7878;44.632;10.942;2022-07-18T12:40:52;35.70;61.60
15554;DHT22;7878;44.632;10.942;2022-07-18T12:43:35;35.60;58.50
15554;DHT22;7878;44.632;10.942;2022-07-18T12:46:08;35.50;59.30
15554;DHT22;7878;44.632;10.942;2022-07-18T12:48:34;35.50;60.60
15554;DHT22;7878;44.632;10.942;2022-07-18T12:51:05;35.30;62.70
15554;DHT22;7878;44.632;10.942;2022-07-18T12:53:34;35.20;61.60
15554;DHT22;7878;44.632;10.942;2022-07-18T12:55:59;35.30;62.70
15554;DHT22;7878;44.632;10.942;2022-07-18T12:58:25;35.30;62.50
15554;DHT22;7878;44.632;10.942;2022-07-18T13:00:51;35.30;62.30
15554;DHT22;7878;44.632;10.942;2022-07-18T13:03:17;35.20;62.70
15554;DHT22;7878;44.632;10.942;2022-07-18T13:05:43;35.20;63.00
15554;DHT22;7878;44.632;10.942;2022-07-18T13:08:09;35.20;63.10
15554;DHT22;7878;44.632;10.942;2022-07-18T13:10:37;35.20;61.50
15554;DHT22;7878;44.632;10.942;2022-07-18T13:13:04;35.20;62.70
15554;DHT22;7878;44.632;10.942;2022-07-18T13:15:30;35.20;62.30
15554;DHT22;7878;44.632;10.942;2022-07-18T13:17:56;35.30;62.40
15554;DHT22;7878;44.632;10.942;2022-07-18T13:20:22;35.20;61.40
15554;DHT22;7878;44.632;10.942;2022-07-18T13:22:48;35.20;61.20
15554;DHT22;7878;44.632;10.942;2022-07-18T13:25:14;35.20;61.20
15554;DHT22;7878;44.632;10.942;2022-07-18T13:27:40;35.20;61.40
15554;DHT22;7878;44.632;10.942;2022-07-18T13:30:07;35.20;61.70
15554;DHT22;7878;44.632;10.942;2022-07-18T13:32:34;35.30;61.50
15554;DHT22;7878;44.632;10.942;2022-07-18T13:35:00;35.30;61.40
15554;DHT22;7878;44.632;10.942;2022-07-18T13:37:26;35.20;61.10
15554;DHT22;7878;44.632;10.942;2022-07-18T13:39:52;35.10;61.20
15554;DHT22;7878;44.632;10.942;2022-07-18T13:42:17;35.10;61.20
15554;DHT22;7878;44.632;10.942;2022-07-18T13:44:43;35.20;61.50
15554;DHT22;7878;44.632;10.942;2022-07-18T13:47:13;35.20;61.10
15554;DHT22;7878;44.632;10.942;2022-07-18T13:49:39;35.30;60.90
15554;DHT22;7878;44.632;10.942;2022-07-18T13:52:05;35.20;60.30
15554;DHT22;7878;44.632;10.942;2022-07-18T13:54:31;35.30;58.90
15554;DHT22;7878;44.632;10.942;2022-07-18T13:56:56;35.10;58.60
15554;DHT22;7878;44.632;10.942;2022-07-18T13:59:22;35.10;59.90
15554;DHT22;7878;44.632;10.942;2022-07-18T14:01:48;35.00;59.10
15554;DHT22;7878;44.632;10.942;2022-07-18T14:04:18;34.90;59.40
15554;DHT22;7878;44.632;10.942;2022-07-18T14:06:44;34.80;58.80
15554;DHT22;7878;44.632;10.942;2022-07-18T14:09:10;34.80;59.80
15554;DHT22;7878;44.632;10.942;2022-07-18T14:11:36;34.90;59.90
15554;DHT22;7878;44.632;10.942;2022-07-18T14:14:03;34.90;59.90
15554;DHT22;7878;44.632;10.942;2022-07-18T14:16:29;35.00;59.60
15554;DHT22;7878;44.632;10.942;2022-07-18T14:18:55;35.00;58.60
15554;DHT22;7878;44.632;10.942;2022-07-18T14:21:21;35.00;58.40
15554;DHT22;7878;44.632;10.942;2022-07-18T14:23:47;35.00;58.10
15554;DHT22;7878;44.632;10.942;2022-07-18T14:26:13;35.00;59.60
15554;DHT22;7878;44.632;10.942;2022-07-18T14:28:39;35.10;59.70
15554;DHT22;7878;44.632;10.942;2022-07-18T14:31:05;35.00;58.80
15554;DHT22;7878;44.632;10.942;2022-07-18T14:33:31;35.00;59.20
15554;DHT22;7878;44.632;10.942;2022-07-18T14:35:56;35.10;59.10
15554;DHT22;7878;44.632;10.942;2022-07-18T14:38:22;35.10;59.00
15554;DHT22;7878;44.632;10.942;2022-07-18T14:40:48;35.10;59.10
15554;DHT22;7878;44.632;10.942;2022-07-18T14:43:13;35.10;58.40
15554;DHT22;7878;44.632;10.942;2022-07-18T14:45:39;35.10;58.90
15554;DHT22;7878;44.632;10.942;2022-07-18T14:48:05;35.00;58.80
15554;DHT22;7878;44.632;10.942;2022-07-18T14:50:31;35.00;59.00
15554;DHT22;7878;44.632;10.942;2022-07-18T14:52:56;35.10;58.60
15554;DHT22;7878;44.632;10.942;2022-07-18T14:55:22;35.00;58.40
15554;DHT22;7878;44.632;10.942;2022-07-18T14:57:48;35.10;57.80
15554;DHT22;7878;44.632;10.942;2022-07-18T15:00:14;35.10;57.70
15554;DHT22;7878;44.632;10.942;2022-07-18T15:02:40;35.10;58.00
15554;DHT22;7878;44.632;10.942;2022-07-18T15:05:06;35.00;58.10
15554;DHT22;7878;44.632;10.942;2022-07-18T15:07:33;35.00;58.30
15554;DHT22;7878;44.632;10.942;2022-07-18T15:09:58;35.00;58.10
15554;DHT22;7878;44.632;10.942;2022-07-18T15:12:24;35.00;57.50
15554;DHT22;7878;44.632;10.942;2022-07-18T15:14:50;34.90;57.80
15554;DHT22;7878;44.632;10.942;2022-07-18T15:17:16;34.90;57.00
15554;DHT22;7878;44.632;10.942;2022-07-18T15:19:42;34.90;56.90
15554;DHT22;7878;44.632;10.942;2022-07-18T15:22:08;34.90;57.60
15554;DHT22;7878;44.632;10.942;2022-07-18T15:24:34;34.90;57.60
15554;DHT22;7878;44.632;10.942;2022-07-18T15:27:00;34.90;57.90
15554;DHT22;7878;44.632;10.942;2022-07-18T15:29:26;34.90;57.60
15554;DHT22;7878;44.632;10.942;2022-07-18T15:31:52;34.90;57.20
15554;DHT22;7878;44.632;10.942;2022-07-18T15:34:18;34.90;57.70
15554;DHT22;7878;44.632;10.942;2022-07-18T15:36:44;34.90;57.50
15554;DHT22;7878;44.632;10.942;2022-07-18T15:39:09;34.80;56.60
15554;DHT22;7878;44.632;10.942;2022-07-18T15:41:35;34.80;56.80
15554;DHT22;7878;44.632;10.942;2022-07-18T15:44:01;34.80;57.00
15554;DHT22;7878;44.632;10.942;2022-07-18T15:46:26;34.80;56.90
15554;DHT22;7878;44.632;10.942;2022-07-18T15:48:52;34.70;57.30
15554;DHT22;7878;44.632;10.942;2022-07-18T15:51:18;34.70;55.90
15554;DHT22;7878;44.632;10.942;2022-07-18T15:53:43;34.60;56.80
15554;DHT22;7878;44.632;10.942;2022-07-18T15:56:09;34.60;56.40
15554;DHT22;7878;44.632;10.942;2022-07-18T15:58:35;34.60;56.90
15554;DHT22;7878;44.632;10.942;2022-07-18T16:01:01;34.60;56.40
15554;DHT22;7878;44.632;10.942;2022-07-18T16:03:26;34.60;56.00
15554;DHT22;7878;44.632;10.942;2022-07-18T16:05:53;34.60;56.00
15554;DHT22;7878;44.632;10.942;2022-07-18T16:08:23;34.50;55.50
15554;DHT22;7878;44.632;10.942;2022-07-18T16:10:49;34.50;55.90
15554;DHT22;7878;44.632;10.942;2022-07-18T16:13:15;34.50;55.80
15554;DHT22;7878;44.632;10.942;2022-07-18T16:15:41;34.50;56.50
15554;DHT22;7878;44.632;10.942;2022-07-18T16:18:08;34.60;56.50
15554;DHT22;7878;44.632;10.942;2022-07-18T16:20:34;34.50;56.10
15554;DHT22;7878;44.632;10.942;2022-07-18T16:23:01;34.50;56.00